Time;durP1;ratioP1;P1;durP2;ratioP2;P2;SDS_P1;SDS_P2;PMS_P1;PMS_P2;Temp;Humidity;BMP_temperature;BMP_pressure;BME280_temperature;BME280_humidity;BME280_pressure;Samples;Min_cycle;Max_cycle;Signal;HPM_P1;HPM_P2
2023/07/07 00:01:34;0.00;0.00;0.62;0.00;0.00;0.62;4.63;3.70;;;29.90;24.50;;;;;;2232331;62;20366;-61
2023/07/07 00:04:21;0.00;0.00;0.62;0.00;0.00;0.62;5.40;4.27;;;29.80;24.50;;;;;;2236103;62;20397;-62
2023/07/07 00:07:06;0.00;0.00;0.62;0.00;0.00;0.62;4.33;3.93;;;29.80;24.60;;;;;;2235875;62;20366;-61
2023/07/07 00:09:51;0.00;0.00;0.62;0.00;0.00;0.62;4.83;4.00;;;29.80;24.50;;;;;;2234888;62;20448;-59
2023/07/07 00:12:37;0.00;0.00;0.62;0.00;0.00;0.62;3.97;3.57;;;29.80;24.50;;;;;;2236161;62;20358;-60
2023/07/07 00:15:22;0.00;0.00;0.62;0.00;0.00;0.62;4.30;3.90;;;29.80;24.50;;;;;;2236695;62;20972;-59
2023/07/07 00:18:07;0.00;0.00;0.62;0.00;0.00;0.62;4.23;3.80;;;29.80;24.50;;;;;;2236381;62;20442;-60
2023/07/07 00:20:53;0.00;0.00;0.62;0.00;0.00;0.62;3.93;3.63;;;29.80;24.60;;;;;;2236896;62;20960;-59
2023/07/07 00:23:38;0.00;0.00;0.62;0.00;0.00;0.62;3.90;3.50;;;29.80;24.60;;;;;;2235999;62;20956;-59
2023/07/07 00:26:25;0.00;0.00;0.62;0.00;0.00;0.62;3.97;3.50;;;29.80;24.60;;;;;;2236228;62;20484;-61
2023/07/07 00:29:10;0.00;0.00;0.62;0.00;0.00;0.62;3.97;3.57;;;29.80;24.60;;;;;;2236184;62;20414;-61
2023/07/07 00:31:54;0.00;0.00;0.62;0.00;0.00;0.62;4.20;3.53;;;29.80;24.60;;;;;;2235888;62;20414;-61
2023/07/07 00:34:39;0.00;0.00;0.62;0.00;0.00;0.62;4.03;3.33;;;29.80;24.60;;;;;;2235807;62;20472;-58
2023/07/07 00:37:25;0.00;0.00;0.62;0.00;0.00;0.62;3.70;3.30;;;29.80;24.60;;;;;;2236742;62;20359;-61
2023/07/07 00:40:12;0.00;0.00;0.62;0.00;0.00;0.62;4.60;3.97;;;29.80;24.60;;;;;;2235782;62;20393;-60
2023/07/07 00:42:57;0.00;0.00;0.62;0.00;0.00;0.62;3.50;3.03;;;29.70;24.50;;;;;;2236762;62;20524;-60
2023/07/07 00:45:41;0.00;0.00;0.62;0.00;0.00;0.62;3.33;3.00;;;29.80;24.60;;;;;;2235669;62;20469;-66
2023/07/07 00:48:31;0.00;0.00;0.62;0.00;0.00;0.62;3.20;2.90;;;29.70;24.50;;;;;;2236450;62;20367;-60
2023/07/07 00:51:23;0.00;0.00;0.62;0.00;0.00;0.62;3.70;3.40;;;29.70;24.50;;;;;;2233453;62;20377;-56
2023/07/07 00:54:16;0.00;0.00;0.62;0.00;0.00;0.62;3.70;3.20;;;29.70;24.50;;;;;;2235430;62;20467;-58
2023/07/07 00:57:04;0.00;0.00;0.62;0.00;0.00;0.62;3.60;3.27;;;29.70;24.50;;;;;;2236348;62;20924;-57
2023/07/07 00:59:49;0.00;0.00;0.62;0.00;0.00;0.62;3.70;3.17;;;29.70;24.40;;;;;;2235638;62;20373;-60
2023/07/07 01:02:34;0.00;0.00;0.62;0.00;0.00;0.62;3.37;3.07;;;29.70;24.40;;;;;;2235970;62;20374;-58
2023/07/07 01:05:20;0.00;0.00;0.62;0.00;0.00;0.62;3.23;2.93;;;29.70;24.50;;;;;;2236564;62;20393;-59
2023/07/07 01:08:06;0.00;0.00;0.62;0.00;0.00;0.62;3.40;3.10;;;29.70;24.50;;;;;;2235306;62;20451;-59
2023/07/07 01:10:52;0.00;0.00;0.62;0.00;0.00;0.62;3.10;2.80;;;29.70;24.50;;;;;;2236541;62;20370;-59
2023/07/07 01:13:38;0.00;0.00;0.62;0.00;0.00;0.62;3.10;2.80;;;29.70;24.50;;;;;;2236007;62;21106;-58
2023/07/07 01:16:33;0.00;0.00;0.62;0.00;0.00;0.62;2.90;2.60;;;29.70;24.40;;;;;;2235441;62;20362;-58
2023/07/07 01:20:12;0.00;0.00;0.62;0.00;0.00;0.62;3.30;3.00;;;29.70;24.50;;;;;;2235881;62;20366;-60
2023/07/07 01:23:48;0.00;0.00;0.62;0.00;0.00;0.62;3.97;3.37;;;29.70;24.50;;;;;;2235432;62;20403;-59
2023/07/07 01:27:18;0.00;0.00;0.62;0.00;0.00;0.62;2.93;2.63;;;29.60;24.40;;;;;;2236765;62;20405;-59
2023/07/07 01:30:31;0.00;0.00;0.62;0.00;0.00;0.62;2.80;2.50;;;29.60;24.40;;;;;;2235715;62;20904;-58
2023/07/07 01:33:20;0.00;0.00;0.62;0.00;0.00;0.62;3.10;2.80;;;29.60;25.00;;;;;;2236657;62;20418;-61
2023/07/07 01:36:05;0.00;0.00;0.62;0.00;0.00;0.62;3.37;3.07;;;29.60;24.40;;;;;;2236006;62;20885;-58
2023/07/07 01:38:49;0.00;0.00;0.62;0.00;0.00;0.62;3.13;2.70;;;29.60;24.40;;;;;;2235346;62;20365;-59
2023/07/07 01:41:40;0.00;0.00;0.62;0.00;0.00;0.62;3.03;2.33;;;29.60;24.40;;;;;;2233292;62;20366;-58
2023/07/07 01:44:40;0.00;0.00;0.62;0.00;0.00;0.62;3.10;2.70;;;29.60;24.40;;;;;;2232996;62;20382;-61
2023/07/07 01:47:33;0.00;0.00;0.62;0.00;0.00;0.62;2.77;2.30;;;29.60;24.40;;;;;;2236557;62;20362;-55
2023/07/07 01:50:23;0.00;0.00;0.62;0.00;0.00;0.62;4.60;2.67;;;29.60;24.40;;;;;;2235470;62;20379;-61
2023/07/07 01:53:17;0.00;0.00;0.62;0.00;0.00;0.62;2.80;2.47;;;29.60;24.40;;;;;;2235636;62;20450;-61
2023/07/07 01:56:02;0.00;0.00;0.62;0.00;0.00;0.62;2.90;2.33;;;29.60;24.40;;;;;;2236356;62;20394;-58
2023/07/07 01:58:48;0.00;0.00;0.62;0.00;0.00;0.62;4.20;2.83;;;29.60;24.40;;;;;;2235723;62;20452;-62
2023/07/07 02:01:34;0.00;0.00;0.62;0.00;0.00;0.62;2.67;2.13;;;29.60;24.40;;;;;;2232849;62;20355;-61
2023/07/07 02:04:21;0.00;0.00;0.62;0.00;0.00;0.62;2.60;2.20;;;29.60;24.40;;;;;;2236152;62;20453;-59
2023/07/07 02:07:07;0.00;0.00;0.62;0.00;0.00;0.62;2.83;2.57;;;29.60;24.40;;;;;;2235422;62;20394;-64
2023/07/07 02:09:51;0.00;0.00;0.62;0.00;0.00;0.62;4.27;2.93;;;29.60;24.40;;;;;;2235524;62;20442;-59
2023/07/07 02:12:36;0.00;0.00;0.62;0.00;0.00;0.62;3.37;2.63;;;29.50;24.30;;;;;;2236102;62;20378;-57
2023/07/07 02:15:21;0.00;0.00;0.62;0.00;0.00;0.62;2.50;1.80;;;29.50;24.30;;;;;;2235827;62;20382;-59
2023/07/07 02:18:05;0.00;0.00;0.62;0.00;0.00;0.62;4.10;2.10;;;29.50;24.30;;;;;;2233275;62;20822;-58
2023/07/07 02:20:52;0.00;0.00;0.62;0.00;0.00;0.62;2.63;2.43;;;29.50;24.90;;;;;;2236488;62;20587;-60
2023/07/07 02:23:36;0.00;0.00;0.62;0.00;0.00;0.62;2.77;2.30;;;29.50;24.30;;;;;;2235146;62;20390;-59
2023/07/07 02:26:21;0.00;0.00;0.62;0.00;0.00;0.62;3.50;2.63;;;29.50;24.30;;;;;;2236412;62;20903;-60
2023/07/07 02:29:06;0.00;0.00;0.62;0.00;0.00;0.62;3.60;2.43;;;29.50;24.30;;;;;;2235730;62;20761;-58
2023/07/07 02:31:51;0.00;0.00;0.62;0.00;0.00;0.62;3.70;2.67;;;29.50;24.30;;;;;;2236174;62;20957;-59
2023/07/07 02:34:36;0.00;0.00;0.62;0.00;0.00;0.62;4.70;4.20;;;29.50;24.30;;;;;;2236236;62;20397;-61
2023/07/07 02:37:23;0.00;0.00;0.62;0.00;0.00;0.62;7.33;6.13;;;29.50;24.30;;;;;;2235451;62;20366;-61
2023/07/07 02:40:11;0.00;0.00;0.62;0.00;0.00;0.62;10.00;8.77;;;29.50;24.30;;;;;;2235433;62;20460;-59
2023/07/07 02:42:56;0.00;0.00;0.62;0.00;0.00;0.62;12.13;10.23;;;29.50;24.30;;;;;;2236251;62;20920;-58
2023/07/07 02:45:43;0.00;0.00;0.62;0.00;0.00;0.62;16.73;13.40;;;29.50;24.80;;;;;;2235499;62;20426;-59
2023/07/07 02:48:28;0.00;0.00;0.62;0.00;0.00;0.62;17.77;14.13;;;29.50;24.30;;;;;;2235804;62;20443;-56
2023/07/07 02:51:14;0.00;0.00;0.62;0.00;0.00;0.62;20.47;16.50;;;29.50;24.30;;;;;;2235392;62;21002;-59
2023/07/07 02:54:00;0.00;0.00;0.62;0.00;0.00;0.62;20.17;17.23;;;29.50;24.30;;;;;;2236335;62;20382;-59
2023/07/07 02:56:45;0.00;0.00;0.62;0.00;0.00;0.62;20.43;17.07;;;29.40;24.20;;;;;;2236350;62;20391;-58
2023/07/07 02:59:30;0.00;0.00;0.62;0.00;0.00;0.62;22.13;18.40;;;29.40;24.20;;;;;;2235088;62;20394;-60
2023/07/07 03:02:14;0.00;0.00;0.62;0.00;0.00;0.62;23.23;17.47;;;29.40;24.20;;;;;;2235939;62;20986;-59
2023/07/07 03:04:59;0.00;0.00;0.62;0.00;0.00;0.62;22.10;17.80;;;29.40;24.20;;;;;;2236297;62;20449;-58
2023/07/07 03:07:44;0.00;0.00;0.62;0.00;0.00;0.62;21.10;17.57;;;29.40;24.20;;;;;;2232434;62;20367;-59
2023/07/07 03:10:32;0.00;0.00;0.62;0.00;0.00;0.62;20.50;16.13;;;29.40;24.20;;;;;;2235936;62;20414;-60
2023/07/07 03:13:17;0.00;0.00;0.62;0.00;0.00;0.62;22.63;17.63;;;29.40;24.80;;;;;;2235286;62;20418;-58
2023/07/07 03:16:09;0.00;0.00;0.62;0.00;0.00;0.62;18.80;15.60;;;29.40;24.20;;;;;;2235698;62;20386;-58
2023/07/07 03:18:57;0.00;0.00;0.62;0.00;0.00;0.62;19.33;15.37;;;29.40;24.30;;;;;;2232881;62;20370;-63
2023/07/07 03:21:43;0.00;0.00;0.62;0.00;0.00;0.62;16.60;14.53;;;29.40;24.20;;;;;;2235233;62;20366;-58
2023/07/07 03:24:44;0.00;0.00;0.62;0.00;0.00;0.62;16.87;13.47;;;29.40;24.20;;;;;;2235727;62;20898;-62
2023/07/07 03:27:41;0.00;0.00;0.62;0.00;0.00;0.62;17.67;13.90;;;29.40;24.20;;;;;;2235732;62;20391;-58
2023/07/07 03:30:34;0.00;0.00;0.62;0.00;0.00;0.62;16.00;12.97;;;29.40;24.20;;;;;;2235069;62;20597;-57
2023/07/07 03:33:32;0.00;0.00;0.62;0.00;0.00;0.62;14.30;11.57;;;29.40;24.20;;;;;;2235727;62;21067;-63
2023/07/07 03:36:21;0.00;0.00;0.62;0.00;0.00;0.62;14.00;11.77;;;29.30;24.20;;;;;;2234902;62;20957;-61
2023/07/07 03:39:06;0.00;0.00;0.62;0.00;0.00;0.62;13.57;10.67;;;29.30;24.20;;;;;;2235285;62;20370;-58
2023/07/07 03:41:52;0.00;0.00;0.62;0.00;0.00;0.62;12.63;10.73;;;29.30;24.20;;;;;;2232990;62;20782;-55
2023/07/07 03:44:39;0.00;0.00;0.62;0.00;0.00;0.62;11.60;9.70;;;29.40;24.20;;;;;;2235556;62;20631;-55
2023/07/07 03:47:23;0.00;0.00;0.62;0.00;0.00;0.62;11.57;9.00;;;29.30;24.20;;;;;;2236000;61;20398;-57
2023/07/07 03:50:09;0.00;0.00;0.62;0.00;0.00;0.62;10.20;8.73;;;29.30;24.20;;;;;;2234938;62;20370;-58
2023/07/07 03:52:55;0.00;0.00;0.62;0.00;0.00;0.62;8.20;7.30;;;29.30;24.20;;;;;;2235468;62;20371;-57
2023/07/07 03:55:40;0.00;0.00;0.62;0.00;0.00;0.62;7.73;6.93;;;29.30;24.20;;;;;;2235763;62;20406;-57
2023/07/07 03:58:27;0.00;0.00;0.62;0.00;0.00;0.62;9.00;7.10;;;29.30;24.20;;;;;;2234548;62;20786;-58
2023/07/07 04:01:14;0.00;0.00;0.62;0.00;0.00;0.62;9.23;7.53;;;29.30;24.20;;;;;;2235814;62;20370;-59
2023/07/07 04:03:59;0.00;0.00;0.62;0.00;0.00;0.62;8.27;7.10;;;29.30;24.20;;;;;;2235669;62;20475;-59
2023/07/07 04:06:44;0.00;0.00;0.62;0.00;0.00;0.62;8.80;6.70;;;29.30;24.70;;;;;;2234873;62;20447;-58
2023/07/07 04:09:28;0.00;0.00;0.62;0.00;0.00;0.62;6.97;6.17;;;29.30;24.20;;;;;;2235130;62;20362;-60
2023/07/07 04:12:14;0.00;0.00;0.62;0.00;0.00;0.62;7.60;6.00;;;29.30;24.20;;;;;;2235639;62;20415;-61
2023/07/07 04:14:59;0.00;0.00;0.62;0.00;0.00;0.62;8.00;6.30;;;29.30;24.20;;;;;;2235700;62;20398;-58
2023/07/07 04:17:45;0.00;0.00;0.62;0.00;0.00;0.62;6.10;5.13;;;29.20;24.10;;;;;;2232992;62;20378;-60
2023/07/07 04:20:34;0.00;0.00;0.62;0.00;0.00;0.62;7.10;5.47;;;29.30;24.20;;;;;;2234961;62;20985;-56
2023/07/07 04:23:19;0.00;0.00;0.62;0.00;0.00;0.62;7.50;5.90;;;29.20;24.10;;;;;;2235396;62;20462;-58
2023/07/07 04:26:05;0.00;0.00;0.62;0.00;0.00;0.62;4.80;4.27;;;29.20;24.10;;;;;;2235794;62;20434;-60
2023/07/07 04:28:51;0.00;0.00;0.62;0.00;0.00;0.62;6.03;5.40;;;29.20;24.10;;;;;;2235047;62;20378;-58
2023/07/07 04:31:36;0.00;0.00;0.62;0.00;0.00;0.62;6.00;4.70;;;29.20;24.10;;;;;;2236205;62;20394;-60
2023/07/07 04:34:22;0.00;0.00;0.62;0.00;0.00;0.62;6.00;4.90;;;29.20;24.10;;;;;;2235981;62;20433;-60
2023/07/07 04:37:07;0.00;0.00;0.62;0.00;0.00;0.62;5.13;4.20;;;29.20;24.10;;;;;;2235717;62;20398;-61
2023/07/07 04:39:52;0.00;0.00;0.62;0.00;0.00;0.62;5.43;4.50;;;29.20;24.20;;;;;;2235593;62;20367;-59
2023/07/07 04:42:37;0.00;0.00;0.62;0.00;0.00;0.62;4.50;3.60;;;29.20;24.10;;;;;;2235354;62;20518;-58
2023/07/07 04:45:21;0.00;0.00;0.62;0.00;0.00;0.62;5.30;4.30;;;29.20;24.10;;;;;;2236000;62;20426;-55
2023/07/07 04:48:06;0.00;0.00;0.62;0.00;0.00;0.62;4.60;3.83;;;29.30;24.20;;;;;;2235858;62;20370;-56
2023/07/07 04:50:56;0.00;0.00;0.62;0.00;0.00;0.62;4.90;4.07;;;29.20;24.10;;;;;;2235180;62;20893;-61
2023/07/07 04:53:42;0.00;0.00;0.62;0.00;0.00;0.62;4.13;3.47;;;29.20;24.10;;;;;;2236100;62;20489;-60
2023/07/07 04:56:26;0.00;0.00;0.62;0.00;0.00;0.62;3.90;3.27;;;29.20;24.10;;;;;;2235941;62;20358;-55
2023/07/07 04:59:11;0.00;0.00;0.62;0.00;0.00;0.62;4.30;3.90;;;29.20;24.10;;;;;;2235227;61;20378;-61
2023/07/07 05:01:56;0.00;0.00;0.62;0.00;0.00;0.62;4.17;3.50;;;29.20;24.10;;;;;;2236859;62;20475;-60
2023/07/07 05:04:40;0.00;0.00;0.62;0.00;0.00;0.62;4.63;3.40;;;29.20;24.10;;;;;;2235968;62;20438;-62
2023/07/07 05:07:28;0.00;0.00;0.62;0.00;0.00;0.62;4.90;3.60;;;29.20;24.10;;;;;;2236708;62;20518;-60
2023/07/07 05:10:13;0.00;0.00;0.62;0.00;0.00;0.62;3.87;3.20;;;29.20;24.10;;;;;;2236246;62;20374;-60
2023/07/07 05:12:58;0.00;0.00;0.62;0.00;0.00;0.62;4.17;3.30;;;29.20;24.10;;;;;;2235634;62;20374;-58
2023/07/07 05:15:42;0.00;0.00;0.62;0.00;0.00;0.62;4.30;3.57;;;29.20;24.10;;;;;;2236561;62;20371;-61
2023/07/07 05:18:27;0.00;0.00;0.62;0.00;0.00;0.62;3.40;2.87;;;29.20;24.10;;;;;;2236241;62;20779;-56
2023/07/07 05:21:14;0.00;0.00;0.62;0.00;0.00;0.62;4.20;2.77;;;29.20;24.10;;;;;;2235778;62;20386;-58
2023/07/07 05:24:01;0.00;0.00;0.62;0.00;0.00;0.62;3.30;2.80;;;29.20;24.10;;;;;;2236152;62;20872;-59
2023/07/07 05:26:46;0.00;0.00;0.62;0.00;0.00;0.62;3.07;2.60;;;29.20;24.10;;;;;;2236103;62;20450;-57
2023/07/07 05:29:31;0.00;0.00;0.62;0.00;0.00;0.62;2.90;2.50;;;29.20;24.10;;;;;;2236063;62;20386;-61
2023/07/07 05:32:16;0.00;0.00;0.62;0.00;0.00;0.62;3.90;3.07;;;29.20;24.10;;;;;;2236627;62;20511;-60
2023/07/07 05:35:01;0.00;0.00;0.62;0.00;0.00;0.62;3.23;2.50;;;29.20;24.10;;;;;;2235670;62;20431;-60
2023/07/07 05:37:45;0.00;0.00;0.62;0.00;0.00;0.62;2.90;2.43;;;29.20;24.10;;;;;;2236802;62;20463;-59
2023/07/07 05:40:31;0.00;0.00;0.62;0.00;0.00;0.62;3.07;2.63;;;29.20;24.10;;;;;;2236217;62;20390;-57
2023/07/07 05:43:18;0.00;0.00;0.62;0.00;0.00;0.62;3.87;3.20;;;29.20;24.10;;;;;;2235836;62;20889;-56
2023/07/07 05:46:06;0.00;0.00;0.62;0.00;0.00;0.62;2.90;2.57;;;29.10;24.00;;;;;;2236398;62;20700;-61
2023/07/07 05:48:51;0.00;0.00;0.62;0.00;0.00;0.62;3.30;2.63;;;29.20;24.10;;;;;;2235707;62;20893;-56
2023/07/07 05:51:36;0.00;0.00;0.62;0.00;0.00;0.62;2.90;2.43;;;29.10;24.00;;;;;;2236556;62;20428;-57
2023/07/07 05:54:21;0.00;0.00;0.62;0.00;0.00;0.62;3.40;2.90;;;29.20;24.10;;;;;;2233133;62;20440;-55
2023/07/07 05:57:07;0.00;0.00;0.62;0.00;0.00;0.62;3.97;2.60;;;29.20;24.10;;;;;;2235818;62;20483;-60
2023/07/07 05:59:52;0.00;0.00;0.62;0.00;0.00;0.62;2.97;2.67;;;29.20;24.10;;;;;;2236127;62;20418;-58
2023/07/07 06:02:36;0.00;0.00;0.62;0.00;0.00;0.62;3.00;2.67;;;29.10;24.00;;;;;;2236574;62;20426;-59
2023/07/07 06:05:21;0.00;0.00;0.62;0.00;0.00;0.62;3.00;2.40;;;29.20;24.10;;;;;;2235671;62;20408;-60
2023/07/07 06:08:07;0.00;0.00;0.62;0.00;0.00;0.62;2.50;1.93;;;29.10;24.00;;;;;;2236435;62;20913;-59
2023/07/07 06:10:52;0.00;0.00;0.62;0.00;0.00;0.62;2.50;2.30;;;29.10;24.00;;;;;;2236067;62;20362;-60
2023/07/07 06:13:39;0.00;0.00;0.62;0.00;0.00;0.62;2.53;2.30;;;29.10;24.00;;;;;;2236056;62;20528;-55
2023/07/07 06:16:24;0.00;0.00;0.62;0.00;0.00;0.62;2.30;2.10;;;29.10;24.00;;;;;;2236418;62;20490;-59
2023/07/07 06:19:08;0.00;0.00;0.62;0.00;0.00;0.62;3.20;2.07;;;29.10;24.00;;;;;;2235381;62;20366;-61
2023/07/07 06:21:53;0.00;0.00;0.62;0.00;0.00;0.62;3.07;2.30;;;29.20;24.10;;;;;;2236291;62;20370;-60
2023/07/07 06:24:38;0.00;0.00;0.62;0.00;0.00;0.62;4.03;2.53;;;29.20;24.10;;;;;;2236413;62;20398;-61
2023/07/07 06:27:23;0.00;0.00;0.62;0.00;0.00;0.62;2.80;2.50;;;29.10;24.00;;;;;;2235763;62;20803;-56
2023/07/07 06:30:10;0.00;0.00;0.62;0.00;0.00;0.62;3.30;2.40;;;29.20;24.60;;;;;;2235682;62;20451;-57
2023/07/07 06:32:58;0.00;0.00;0.62;0.00;0.00;0.62;2.87;2.30;;;29.20;24.10;;;;;;2235921;62;20788;-58
2023/07/07 06:35:44;0.00;0.00;0.62;0.00;0.00;0.62;3.20;2.30;;;29.20;24.10;;;;;;2235641;62;20427;-54
2023/07/07 06:38:29;0.00;0.00;0.62;0.00;0.00;0.62;3.90;2.30;;;29.20;24.10;;;;;;2235794;62;20370;-58
2023/07/07 06:41:17;0.00;0.00;0.62;0.00;0.00;0.62;2.33;1.83;;;29.10;24.00;;;;;;2235578;62;20366;-58
2023/07/07 06:44:02;0.00;0.00;0.62;0.00;0.00;0.62;2.70;1.97;;;29.10;24.10;;;;;;2236157;62;20985;-57
2023/07/07 06:46:48;0.00;0.00;0.62;0.00;0.00;0.62;2.57;1.93;;;29.10;24.00;;;;;;2236380;62;20435;-58
2023/07/07 06:49:33;0.00;0.00;0.62;0.00;0.00;0.62;2.40;1.87;;;29.10;24.70;;;;;;2235081;62;20681;-57
2023/07/07 06:52:17;0.00;0.00;0.62;0.00;0.00;0.62;2.57;2.00;;;29.20;24.10;;;;;;2236336;62;20370;-60
2023/07/07 06:55:03;0.00;0.00;0.62;0.00;0.00;0.62;3.33;1.93;;;29.20;24.10;;;;;;2235970;62;20386;-63
2023/07/07 06:57:47;0.00;0.00;0.62;0.00;0.00;0.62;2.40;2.17;;;29.20;24.10;;;;;;2235700;62;20370;-58
2023/07/07 07:00:32;0.00;0.00;0.62;0.00;0.00;0.62;2.20;1.80;;;29.20;24.10;;;;;;2235998;62;20847;-58
2023/07/07 07:03:27;0.00;0.00;0.62;0.00;0.00;0.62;3.17;2.30;;;29.10;24.10;;;;;;2238575;56;20960;-59
2023/07/07 07:06:12;0.00;0.00;0.62;0.00;0.00;0.62;3.17;2.03;;;29.10;24.10;;;;;;2225865;62;20397;-59
2023/07/07 07:08:57;0.00;0.00;0.62;0.00;0.00;0.62;2.33;1.93;;;29.10;24.10;;;;;;2224478;62;20848;-58
2023/07/07 07:11:42;0.00;0.00;0.62;0.00;0.00;0.62;2.00;1.60;;;29.10;24.20;;;;;;2223648;62;20904;-57
2023/07/07 07:14:26;0.00;0.00;0.62;0.00;0.00;0.62;2.40;1.93;;;29.20;24.20;;;;;;2224607;62;20981;-58
2023/07/07 07:17:11;0.00;0.00;0.62;0.00;0.00;0.62;2.50;2.20;;;29.10;24.10;;;;;;2224406;62;20376;-64
2023/07/07 07:19:57;0.00;0.00;0.62;0.00;0.00;0.62;2.17;1.90;;;29.20;24.20;;;;;;2223645;62;20393;-63
2023/07/07 07:22:42;0.00;0.00;0.62;0.00;0.00;0.62;2.40;1.80;;;29.20;24.20;;;;;;2224172;62;20425;-59
2023/07/07 07:25:26;0.00;0.00;0.62;0.00;0.00;0.62;2.00;1.70;;;29.10;24.20;;;;;;2223814;62;20870;-56
2023/07/07 07:28:12;0.00;0.00;0.62;0.00;0.00;0.62;2.10;1.90;;;29.20;24.20;;;;;;2224530;62;20392;-60
2023/07/07 07:30:57;0.00;0.00;0.62;0.00;0.00;0.62;2.40;1.80;;;29.10;24.20;;;;;;2224598;62;20376;-57
2023/07/07 07:33:41;0.00;0.00;0.62;0.00;0.00;0.62;2.40;1.80;;;29.10;24.20;;;;;;2223744;62;20392;-56
2023/07/07 07:36:27;0.00;0.00;0.62;0.00;0.00;0.62;1.70;1.40;;;29.10;24.30;;;;;;2224445;62;20421;-56
2023/07/07 07:39:12;0.00;0.00;0.62;0.00;0.00;0.62;2.70;2.10;;;29.10;24.20;;;;;;2224032;62;20440;-56
2023/07/07 07:41:57;0.00;0.00;0.62;0.00;0.00;0.62;2.47;1.80;;;29.10;24.30;;;;;;2224372;62;20377;-56
2023/07/07 07:44:42;0.00;0.00;0.62;0.00;0.00;0.62;2.10;1.70;;;29.10;24.30;;;;;;2224196;62;20953;-59
2023/07/07 07:47:27;0.00;0.00;0.62;0.00;0.00;0.62;2.17;1.40;;;29.10;24.30;;;;;;2224146;62;20401;-58
2023/07/07 07:50:13;0.00;0.00;0.62;0.00;0.00;0.62;2.03;1.57;;;29.20;24.40;;;;;;2224173;62;20414;-60
2023/07/07 07:53:00;0.00;0.00;0.62;0.00;0.00;0.62;2.80;1.70;;;29.20;24.30;;;;;;2224626;62;20799;-59
2023/07/07 07:55:44;0.00;0.00;0.62;0.00;0.00;0.62;1.97;1.53;;;29.10;24.40;;;;;;2223766;62;20406;-60
2023/07/07 07:58:29;0.00;0.00;0.62;0.00;0.00;0.62;2.60;1.97;;;29.20;24.40;;;;;;2224258;62;20385;-56
2023/07/07 08:01:14;0.00;0.00;0.62;0.00;0.00;0.62;2.53;1.90;;;29.10;24.40;;;;;;2224279;62;20369;-56
2023/07/07 08:03:58;0.00;0.00;0.62;0.00;0.00;0.62;2.23;1.67;;;29.20;24.40;;;;;;2224523;62;20395;-62
2023/07/07 08:06:43;0.00;0.00;0.62;0.00;0.00;0.62;2.20;1.67;;;29.20;24.50;;;;;;2228118;62;20408;-58
2023/07/07 08:09:29;0.00;0.00;0.62;0.00;0.00;0.62;3.00;1.73;;;29.20;24.50;;;;;;2227508;62;20376;-58
2023/07/07 08:12:16;0.00;0.00;0.62;0.00;0.00;0.62;2.50;1.77;;;29.20;24.50;;;;;;2227996;62;20384;-60
2023/07/07 08:15:01;0.00;0.00;0.62;0.00;0.00;0.62;1.73;1.30;;;29.10;24.40;;;;;;2228183;62;20451;-56
2023/07/07 08:17:46;0.00;0.00;0.62;0.00;0.00;0.62;2.47;1.90;;;29.20;24.50;;;;;;2227736;62;20363;-59
2023/07/07 08:20:31;0.00;0.00;0.62;0.00;0.00;0.62;2.47;1.90;;;29.20;24.50;;;;;;2227661;62;20407;-58
2023/07/07 08:23:15;0.00;0.00;0.62;0.00;0.00;0.62;2.27;1.57;;;29.20;24.50;;;;;;2227989;62;20424;-60
2023/07/07 08:26:01;0.00;0.00;0.62;0.00;0.00;0.62;2.13;1.43;;;29.20;24.50;;;;;;2227632;62;20384;-57
2023/07/07 08:28:46;0.00;0.00;0.62;0.00;0.00;0.62;1.73;1.40;;;29.20;24.50;;;;;;2227737;62;20419;-58
2023/07/07 08:31:30;0.00;0.00;0.62;0.00;0.00;0.62;1.83;1.50;;;29.20;25.00;;;;;;2227803;62;20485;-59
2023/07/07 08:34:16;0.00;0.00;0.62;0.00;0.00;0.62;1.87;1.50;;;29.20;24.50;;;;;;2228088;62;20383;-57
2023/07/07 08:37:01;0.00;0.00;0.62;0.00;0.00;0.62;1.93;1.57;;;29.20;24.50;;;;;;2229053;62;20393;-60
2023/07/07 08:39:47;0.00;0.00;0.62;0.00;0.00;0.62;2.20;1.50;;;29.20;24.50;;;;;;2227837;62;20914;-56
2023/07/07 08:42:36;0.00;0.00;0.62;0.00;0.00;0.62;2.40;1.80;;;29.20;24.50;;;;;;2225891;62;20425;-59
2023/07/07 08:45:23;0.00;0.00;0.62;0.00;0.00;0.62;1.60;1.30;;;29.20;24.50;;;;;;2228837;62;20875;-59
2023/07/07 08:48:19;0.00;0.00;0.62;0.00;0.00;0.62;2.10;1.27;;;29.20;24.50;;;;;;2228288;62;20938;-60
2023/07/07 08:51:14;0.00;0.00;0.62;0.00;0.00;0.62;1.80;1.40;;;29.20;24.50;;;;;;2228919;62;20372;-58
2023/07/07 08:54:11;0.00;0.00;0.62;0.00;0.00;0.62;2.10;1.50;;;29.20;24.50;;;;;;2228442;62;20387;-60
2023/07/07 08:57:05;0.00;0.00;0.62;0.00;0.00;0.62;2.17;1.47;;;29.20;24.50;;;;;;2228738;62;20442;-57
2023/07/07 09:00:02;0.00;0.00;0.62;0.00;0.00;0.62;2.80;1.70;;;29.20;24.50;;;;;;2228844;62;20433;-56
2023/07/07 09:03:14;0.00;0.00;0.62;0.00;0.00;0.62;2.17;1.70;;;29.20;24.50;;;;;;2228032;62;20391;-57
2023/07/07 09:06:19;0.00;0.00;0.62;0.00;0.00;0.62;1.87;1.50;;;29.20;24.50;;;;;;2228849;62;20387;-58
2023/07/07 09:09:14;0.00;0.00;0.62;0.00;0.00;0.62;1.80;1.50;;;29.20;24.50;;;;;;2227506;62;20365;-58
2023/07/07 09:12:16;0.00;0.00;0.62;0.00;0.00;0.62;1.97;1.57;;;29.20;24.50;;;;;;2228823;62;20455;-55
2023/07/07 09:15:10;0.00;0.00;0.62;0.00;0.00;0.62;2.53;1.53;;;29.20;24.50;;;;;;2228753;62;20768;-59
2023/07/07 09:18:01;0.00;0.00;0.62;0.00;0.00;0.62;1.83;1.30;;;29.20;24.50;;;;;;2225101;62;20412;-59
2023/07/07 09:20:55;0.00;0.00;0.62;0.00;0.00;0.62;1.77;1.57;;;29.20;24.50;;;;;;2228697;62;20432;-60
2023/07/07 09:23:40;0.00;0.00;0.62;0.00;0.00;0.62;1.63;1.20;;;29.20;24.50;;;;;;2228206;62;20532;-58
2023/07/07 09:26:29;0.00;0.00;0.62;0.00;0.00;0.62;1.70;1.50;;;29.20;24.50;;;;;;2228788;62;20484;-58
2023/07/07 09:29:23;0.00;0.00;0.62;0.00;0.00;0.62;2.03;1.40;;;29.30;24.50;;;;;;2225228;62;20417;-59
2023/07/07 09:32:12;0.00;0.00;0.62;0.00;0.00;0.62;1.90;1.40;;;29.30;24.50;;;;;;2227768;62;20400;-58
2023/07/07 09:34:56;0.00;0.00;0.62;0.00;0.00;0.62;1.53;1.20;;;29.30;24.50;;;;;;2228750;62;20440;-61
2023/07/07 09:37:54;0.00;0.00;0.62;0.00;0.00;0.62;1.50;1.17;;;29.30;24.60;;;;;;2228695;62;20369;-61
2023/07/07 09:40:47;0.00;0.00;0.62;0.00;0.00;0.62;2.43;1.47;;;29.30;24.50;;;;;;2225324;62;20364;-60
2023/07/07 09:43:42;0.00;0.00;0.62;0.00;0.00;0.62;1.80;1.30;;;29.30;24.50;;;;;;2228572;62;20387;-60
2023/07/07 09:46:35;0.00;0.00;0.62;0.00;0.00;0.62;1.80;1.37;;;29.30;24.50;;;;;;2227737;62;20529;-59
2023/07/07 09:49:28;0.00;0.00;0.62;0.00;0.00;0.62;3.50;1.40;;;29.30;24.50;;;;;;2228392;62;20392;-61
2023/07/07 09:52:39;0.00;0.00;0.62;0.00;0.00;0.62;1.73;1.50;;;29.30;24.50;;;;;;2228481;62;20428;-61
2023/07/07 09:55:29;0.00;0.00;0.62;0.00;0.00;0.62;2.00;1.60;;;29.30;24.50;;;;;;2228267;62;20420;-58
2023/07/07 09:58:19;0.00;0.00;0.62;0.00;0.00;0.62;2.47;1.30;;;29.30;24.50;;;;;;2228671;62;20905;-65
2023/07/07 10:01:05;0.00;0.00;0.62;0.00;0.00;0.62;1.67;1.20;;;29.30;24.50;;;;;;2227765;62;20429;-58
2023/07/07 10:03:50;0.00;0.00;0.62;0.00;0.00;0.62;2.00;1.20;;;29.30;24.50;;;;;;2228782;62;20401;-60
2023/07/07 10:06:41;0.00;0.00;0.62;0.00;0.00;0.62;1.93;1.43;;;29.40;24.60;;;;;;2228550;62;20392;-61
2023/07/07 10:09:28;0.00;0.00;0.62;0.00;0.00;0.62;2.00;1.50;;;29.40;24.60;;;;;;2228248;62;20400;-61
2023/07/07 10:12:16;0.00;0.00;0.62;0.00;0.00;0.62;1.60;1.13;;;29.30;24.50;;;;;;2229621;62;20419;-61
2023/07/07 10:15:01;0.00;0.00;0.62;0.00;0.00;0.62;1.60;1.20;;;29.40;24.60;;;;;;2229400;62;20991;-62
2023/07/07 10:17:55;0.00;0.00;0.62;0.00;0.00;0.62;1.40;1.00;;;29.40;24.60;;;;;;2229686;62;20487;-60
2023/07/07 10:20:40;0.00;0.00;0.62;0.00;0.00;0.62;1.77;1.30;;;29.40;24.60;;;;;;2229955;62;20361;-61
2023/07/07 10:23:29;0.00;0.00;0.62;0.00;0.00;0.62;1.70;1.30;;;29.40;24.60;;;;;;2229365;62;20428;-61
2023/07/07 10:26:14;0.00;0.00;0.62;0.00;0.00;0.62;1.70;1.30;;;29.40;24.60;;;;;;2230040;62;20456;-61
2023/07/07 10:29:03;0.00;0.00;0.62;0.00;0.00;0.62;2.07;1.47;;;29.40;24.60;;;;;;2229706;62;20371;-60
2023/07/07 10:31:49;0.00;0.00;0.62;0.00;0.00;0.62;1.60;1.00;;;29.40;24.60;;;;;;2229005;62;20461;-59
2023/07/07 10:34:37;0.00;0.00;0.62;0.00;0.00;0.62;1.40;1.00;;;29.40;24.60;;;;;;2229833;62;20391;-61
2023/07/07 10:37:25;0.00;0.00;0.62;0.00;0.00;0.62;1.60;1.10;;;29.40;24.60;;;;;;2229606;62;20876;-59
2023/07/07 10:40:14;0.00;0.00;0.62;0.00;0.00;0.62;2.37;1.57;;;29.40;24.70;;;;;;2229171;62;20946;-60
2023/07/07 10:43:00;0.00;0.00;0.62;0.00;0.00;0.62;3.17;1.20;;;29.40;24.70;;;;;;2229734;62;20931;-61
2023/07/07 10:45:45;0.00;0.00;0.62;0.00;0.00;0.62;2.07;1.17;;;29.40;24.70;;;;;;2228918;62;20484;-61
2023/07/07 10:48:30;0.00;0.00;0.62;0.00;0.00;0.62;2.10;1.30;;;29.50;24.80;;;;;;2228906;62;20898;-61
2023/07/07 10:51:24;0.00;0.00;0.62;0.00;0.00;0.62;1.80;1.20;;;29.50;25.30;;;;;;2229735;62;20425;-60
2023/07/07 10:54:18;0.00;0.00;0.62;0.00;0.00;0.62;1.80;1.10;;;29.50;24.80;;;;;;2229298;62;20416;-57
2023/07/07 10:57:16;0.00;0.00;0.62;0.00;0.00;0.62;1.50;1.00;;;29.50;24.80;;;;;;2229427;62;20419;-61
2023/07/07 11:00:15;0.00;0.00;0.62;0.00;0.00;0.62;1.90;1.20;;;29.50;24.80;;;;;;2228656;62;20376;-60
2023/07/07 11:03:46;0.00;0.00;0.62;0.00;0.00;0.62;1.80;1.40;;;29.50;24.80;;;;;;2229391;62;20778;-62